Time;durP1;ratioP1;P1;durP2;ratioP2;P2;SDS_P1;SDS_P2;PMS_P1;PMS_P2;Temp;Humidity;BMP_temperature;BMP_pressure;BME280_temperature;BME280_humidity;BME280_pressure;Samples;Min_cycle;Max_cycle;Signal;HPM_P1;HPM_P2
2021/10/23 00:01:43;;;;;;;6.53;2.17;;;;;;;;;;5015819;28;20048;-89
2021/10/23 00:04:10;;;;;;;3.45;1.30;;;;;;;;;;5051652;28;20049;-89
2021/10/23 00:06:36;;;;;;;3.80;1.50;;;;;;;;;;5017874;28;20056;-88
2021/10/23 00:09:03;;;;;;;4.32;1.40;;;;;;;;;;5032499;28;20052;-89
2021/10/23 00:11:30;;;;;;;4.13;1.80;;;;;;;;;;5044185;28;20054;-89
2021/10/23 00:13:57;;;;;;;5.78;1.70;;;;;;;;;;5051775;28;20539;-88
2021/10/23 00:16:23;;;;;;;4.38;1.60;;;;;;;;;;5034441;28;20049;-89
2021/10/23 00:18:52;;;;;;;3.80;1.33;;;;;;;;;;5050207;28;20072;-89
2021/10/23 00:21:19;;;;;;;3.63;1.45;;;;;;;;;;5045979;28;20056;-88
2021/10/23 00:23:46;;;;;;;8.13;1.65;;;;;;;;;;5041374;28;20046;-88
2021/10/23 00:26:13;;;;;;;6.28;1.73;;;;;;;;;;5045036;28;20049;-88
2021/10/23 00:28:40;;;;;;;4.18;1.45;;;;;;;;;;5034500;28;20056;-89
2021/10/23 00:31:07;;;;;;;4.63;2.08;;;;;;;;;;5034569;28;20053;-88
2021/10/23 00:33:34;;;;;;;8.75;1.70;;;;;;;;;;5029923;28;20091;-88
2021/10/23 00:36:02;;;;;;;4.30;1.52;;;;;;;;;;5031155;28;20136;-88
2021/10/23 00:38:29;;;;;;;5.97;1.35;;;;;;;;;;5027991;28;20079;-88
2021/10/23 00:40:56;;;;;;;3.38;1.27;;;;;;;;;;5045174;28;20045;-88
2021/10/23 00:43:22;;;;;;;7.40;1.65;;;;;;;;;;5051399;28;20053;-89
2021/10/23 00:45:49;;;;;;;3.15;1.33;;;;;;;;;;5026290;28;20482;-90
2021/10/23 00:48:16;;;;;;;4.93;1.90;;;;;;;;;;5020297;28;20052;-88
2021/10/23 00:50:45;;;;;;;4.68;1.63;;;;;;;;;;5020899;28;20045;-88
2021/10/23 00:53:15;;;;;;;4.47;1.38;;;;;;;;;;5033759;28;20037;-89
2021/10/23 00:55:42;;;;;;;5.38;1.42;;;;;;;;;;5045894;28;20045;-89
2021/10/23 00:58:09;;;;;;;2.92;1.17;;;;;;;;;;5016555;28;20053;-88
2021/10/23 01:00:36;;;;;;;4.82;1.65;;;;;;;;;;5034251;28;20436;-88
2021/10/23 01:05:37;;;;;;;6.10;1.65;;;;;;;;;;5031017;22;20426;-80
2021/10/23 01:08:04;;;;;;;6.53;1.65;;;;;;;;;;5021326;28;20054;-80
2021/10/23 01:10:32;;;;;;;5.65;1.70;;;;;;;;;;5021864;28;20437;-80
2021/10/23 01:12:59;;;;;;;3.90;1.40;;;;;;;;;;5024811;28;20046;-80
2021/10/23 01:15:26;;;;;;;4.28;1.60;;;;;;;;;;5015720;28;20073;-80
2021/10/23 01:17:54;;;;;;;8.20;1.70;;;;;;;;;;5015739;28;20042;-80
2021/10/23 01:20:24;;;;;;;7.47;1.88;;;;;;;;;;5028279;28;20418;-80
2021/10/23 01:22:51;;;;;;;4.53;2.53;;;;;;;;;;5027103;28;20048;-80
2021/10/23 01:25:19;;;;;;;4.45;1.42;;;;;;;;;;5016114;28;20671;-80
2021/10/23 01:27:45;;;;;;;21.48;4.55;;;;;;;;;;5029396;28;20050;-80
2021/10/23 01:30:13;;;;;;;6.03;2.47;;;;;;;;;;5020509;28;20049;-79
2021/10/23 01:32:40;;;;;;;6.03;1.60;;;;;;;;;;5017002;28;20049;-80
2021/10/23 01:35:08;;;;;;;6.22;1.45;;;;;;;;;;5017044;28;20058;-80
2021/10/23 01:37:38;;;;;;;8.25;1.70;;;;;;;;;;5021026;28;20057;-80
2021/10/23 01:40:07;;;;;;;3.08;1.38;;;;;;;;;;5022443;28;20041;-80
2021/10/23 01:42:33;;;;;;;4.10;1.70;;;;;;;;;;5033650;28;20037;-80
2021/10/23 01:44:59;;;;;;;3.63;1.77;;;;;;;;;;5020944;28;20049;-80
2021/10/23 01:47:26;;;;;;;9.32;1.90;;;;;;;;;;5020773;28;20509;-80
2021/10/23 01:49:52;;;;;;;5.60;1.58;;;;;;;;;;5025418;28;20045;-79
2021/10/23 01:52:19;;;;;;;6.40;1.77;;;;;;;;;;5019272;28;20068;-80
2021/10/23 01:54:46;;;;;;;4.97;1.60;;;;;;;;;;5027659;28;20045;-80
2021/10/23 01:57:13;;;;;;;5.05;1.70;;;;;;;;;;5015681;28;20403;-80
2021/10/23 01:59:39;;;;;;;5.85;1.70;;;;;;;;;;4998237;28;20475;-80
2021/10/23 02:02:06;;;;;;;5.30;1.67;;;;;;;;;;5017837;28;20064;-80
2021/10/23 02:04:32;;;;;;;5.90;1.83;;;;;;;;;;5026850;28;20049;-80
2021/10/23 02:06:59;;;;;;;4.93;1.95;;;;;;;;;;5028781;28;20049;-80
2021/10/23 02:09:25;;;;;;;6.13;1.20;;;;;;;;;;5028713;28;20042;-80
2021/10/23 02:11:53;;;;;;;4.13;1.80;;;;;;;;;;5021061;28;20121;-80
2021/10/23 02:14:19;;;;;;;3.70;1.52;;;;;;;;;;5024906;28;20057;-80
2021/10/23 02:16:46;;;;;;;4.90;1.67;;;;;;;;;;5023071;28;20056;-80
2021/10/23 02:19:12;;;;;;;9.15;1.63;;;;;;;;;;5024133;28;20049;-79
2021/10/23 02:21:39;;;;;;;7.43;1.98;;;;;;;;;;5032656;28;20052;-80
2021/10/23 02:24:05;;;;;;;5.63;1.67;;;;;;;;;;5021917;28;20061;-80
2021/10/23 02:26:32;;;;;;;6.88;1.70;;;;;;;;;;5023920;28;20512;-80
2021/10/23 02:29:00;;;;;;;5.60;1.73;;;;;;;;;;5030262;28;20042;-80
2021/10/23 02:31:26;;;;;;;6.88;1.98;;;;;;;;;;5014710;28;20049;-80
2021/10/23 02:33:52;;;;;;;6.38;2.53;;;;;;;;;;5014706;28;20046;-80
2021/10/23 02:36:19;;;;;;;4.70;1.92;;;;;;;;;;5027059;28;20057;-80
2021/10/23 02:38:46;;;;;;;3.42;1.58;;;;;;;;;;5028477;28;20493;-80
2021/10/23 02:41:12;;;;;;;5.75;1.42;;;;;;;;;;5027127;28;20050;-80
2021/10/23 02:43:39;;;;;;;6.88;1.73;;;;;;;;;;5021515;28;20042;-80
2021/10/23 02:46:06;;;;;;;6.22;1.83;;;;;;;;;;5029226;28;20065;-80
2021/10/23 02:48:33;;;;;;;2.85;1.17;;;;;;;;;;5028016;28;20046;-80
2021/10/23 02:50:59;;;;;;;4.40;1.48;;;;;;;;;;5026064;28;20046;-80
2021/10/23 02:53:26;;;;;;;4.47;1.75;;;;;;;;;;5029952;28;20052;-79
2021/10/23 02:55:52;;;;;;;3.67;1.70;;;;;;;;;;5002212;28;20050;-80
2021/10/23 02:58:18;;;;;;;8.18;2.03;;;;;;;;;;5018951;28;20045;-80
2021/10/23 03:00:45;;;;;;;5.47;2.10;;;;;;;;;;5026832;28;20049;-79
2021/10/23 03:03:13;;;;;;;6.60;2.00;;;;;;;;;;5026028;28;20057;-80
2021/10/23 03:05:39;;;;;;;3.80;1.35;;;;;;;;;;5031986;28;20049;-80
2021/10/23 03:08:06;;;;;;;4.93;2.20;;;;;;;;;;5031261;28;20053;-80
2021/10/23 03:10:32;;;;;;;4.55;2.17;;;;;;;;;;5032606;28;20510;-80
2021/10/23 03:12:59;;;;;;;4.80;1.60;;;;;;;;;;5020168;28;20049;-79
2021/10/23 03:15:25;;;;;;;8.85;3.03;;;;;;;;;;5017938;28;20053;-80
2021/10/23 03:17:52;;;;;;;3.97;1.27;;;;;;;;;;5018142;28;20674;-80
2021/10/23 03:20:19;;;;;;;3.95;1.50;;;;;;;;;;5030277;28;20041;-80
2021/10/23 03:22:46;;;;;;;4.07;1.65;;;;;;;;;;5030044;28;20410;-80
2021/10/23 03:25:12;;;;;;;6.72;2.05;;;;;;;;;;5024960;28;20050;-80
2021/10/23 03:27:39;;;;;;;5.63;2.50;;;;;;;;;;5030840;28;20052;-80
2021/10/23 03:30:07;;;;;;;5.18;2.20;;;;;;;;;;5036022;28;20414;-80
2021/10/23 03:32:33;;;;;;;4.63;1.75;;;;;;;;;;5030181;28;20053;-80
2021/10/23 03:35:00;;;;;;;4.53;1.77;;;;;;;;;;5024274;28;20045;-80
2021/10/23 03:37:29;;;;;;;7.00;2.42;;;;;;;;;;5024851;28;20056;-80
2021/10/23 03:39:56;;;;;;;5.15;1.88;;;;;;;;;;5029661;28;20120;-80
2021/10/23 03:42:23;;;;;;;4.60;2.22;;;;;;;;;;5036000;28;20052;-80
2021/10/23 03:44:49;;;;;;;6.28;1.60;;;;;;;;;;5026247;28;20042;-80
2021/10/23 03:47:17;;;;;;;4.60;1.90;;;;;;;;;;5034119;28;20489;-80
2021/10/23 03:49:43;;;;;;;13.05;2.00;;;;;;;;;;5026763;28;20088;-80
2021/10/23 03:52:10;;;;;;;3.83;1.65;;;;;;;;;;5027212;28;20057;-80
2021/10/23 03:54:38;;;;;;;6.38;2.13;;;;;;;;;;5017889;28;20045;-80
2021/10/23 03:57:05;;;;;;;4.35;1.80;;;;;;;;;;5019681;28;20045;-80
2021/10/23 03:59:31;;;;;;;4.97;1.75;;;;;;;;;;5014114;28;20042;-80
2021/10/23 04:01:58;;;;;;;5.57;1.92;;;;;;;;;;5018531;28;20045;-80
2021/10/23 04:04:24;;;;;;;8.43;1.70;;;;;;;;;;5023004;28;20046;-80
2021/10/23 04:06:51;;;;;;;4.07;1.77;;;;;;;;;;5030747;28;20038;-80
2021/10/23 04:09:18;;;;;;;4.97;1.42;;;;;;;;;;5028495;28;20100;-80
2021/10/23 04:11:46;;;;;;;6.45;1.80;;;;;;;;;;5027915;28;20516;-80
2021/10/23 04:14:13;;;;;;;3.50;1.60;;;;;;;;;;5032290;28;20049;-80
2021/10/23 04:16:40;;;;;;;6.25;1.75;;;;;;;;;;5032449;28;20060;-80
2021/10/23 04:19:06;;;;;;;4.45;1.80;;;;;;;;;;5022349;28;20061;-80
2021/10/23 04:21:33;;;;;;;5.60;1.90;;;;;;;;;;5023165;28;20045;-80
2021/10/23 04:23:59;;;;;;;4.40;1.60;;;;;;;;;;5027990;28;20053;-80
2021/10/23 04:26:25;;;;;;;9.02;2.22;;;;;;;;;;5022581;28;20049;-80
2021/10/23 04:28:53;;;;;;;7.80;1.70;;;;;;;;;;5020257;28;20041;-80
2021/10/23 04:31:20;;;;;;;5.93;1.88;;;;;;;;;;5015364;28;20050;-80
2021/10/23 04:33:46;;;;;;;7.35;1.67;;;;;;;;;;5020553;28;20569;-80
2021/10/23 04:36:12;;;;;;;4.90;1.88;;;;;;;;;;5018493;28;20053;-79
2021/10/23 04:38:39;;;;;;;5.05;1.88;;;;;;;;;;5016556;28;20049;-80
2021/10/23 04:41:06;;;;;;;4.35;1.80;;;;;;;;;;5016043;28;20544;-80
2021/10/23 04:43:32;;;;;;;4.35;1.90;;;;;;;;;;5022012;28;20049;-80
2021/10/23 04:46:00;;;;;;;3.17;1.38;;;;;;;;;;5033487;28;20053;-80
2021/10/23 04:48:27;;;;;;;3.72;1.85;;;;;;;;;;5017050;28;20053;-80
2021/10/23 04:50:53;;;;;;;5.38;1.70;;;;;;;;;;5029223;28;20648;-80
2021/10/23 04:53:20;;;;;;;5.35;2.03;;;;;;;;;;5033005;28;20053;-80
2021/10/23 04:55:46;;;;;;;5.07;1.80;;;;;;;;;;5023004;28;20387;-80
2021/10/23 04:58:13;;;;;;;3.83;1.38;;;;;;;;;;5021964;28;20038;-79
2021/10/23 05:00:39;;;;;;;3.80;1.60;;;;;;;;;;5022561;28;20444;-80
2021/10/23 05:03:07;;;;;;;5.28;1.77;;;;;;;;;;5027216;28;20058;-79
2021/10/23 05:05:33;;;;;;;7.88;2.10;;;;;;;;;;5026395;28;20409;-80
2021/10/23 05:08:00;;;;;;;5.88;1.83;;;;;;;;;;5023838;28;20053;-80
2021/10/23 05:10:26;;;;;;;5.50;2.10;;;;;;;;;;5021560;28;20049;-79
2021/10/23 05:12:52;;;;;;;5.43;1.95;;;;;;;;;;5036923;28;20125;-80
2021/10/23 05:15:19;;;;;;;8.32;2.28;;;;;;;;;;5035479;28;20044;-80
2021/10/23 05:17:46;;;;;;;4.07;1.77;;;;;;;;;;5025763;28;20056;-79
2021/10/23 05:20:14;;;;;;;4.47;2.50;;;;;;;;;;5035644;28;20555;-80
2021/10/23 05:22:40;;;;;;;4.93;1.70;;;;;;;;;;5025770;28;20056;-80
2021/10/23 05:25:08;;;;;;;5.97;1.98;;;;;;;;;;5026827;28;20110;-81
2021/10/23 05:27:34;;;;;;;6.10;2.22;;;;;;;;;;5036943;28;20045;-80
2021/10/23 05:30:00;;;;;;;4.20;1.90;;;;;;;;;;5029045;28;20046;-80
2021/10/23 05:32:27;;;;;;;6.32;1.70;;;;;;;;;;5033224;28;20045;-80
2021/10/23 05:34:53;;;;;;;4.50;1.95;;;;;;;;;;5019501;28;20053;-80
2021/10/23 05:37:21;;;;;;;8.27;2.17;;;;;;;;;;5029100;28;20057;-80
2021/10/23 05:39:48;;;;;;;5.55;1.77;;;;;;;;;;5032578;28;20065;-80
2021/10/23 05:42:14;;;;;;;4.20;1.77;;;;;;;;;;5028636;28;20073;-80
2021/10/23 05:44:40;;;;;;;11.82;2.35;;;;;;;;;;5029471;28;20053;-80
2021/10/23 05:47:07;;;;;;;8.18;2.42;;;;;;;;;;5032717;28;20487;-80
2021/10/23 05:49:34;;;;;;;9.00;5.05;;;;;;;;;;5029263;28;20522;-80
2021/10/23 05:52:01;;;;;;;11.68;3.88;;;;;;;;;;5029313;28;20041;-80
2021/10/23 05:54:29;;;;;;;9.43;2.80;;;;;;;;;;5023232;28;20049;-80
2021/10/23 05:56:56;;;;;;;18.20;3.05;;;;;;;;;;5030653;28;20699;-79
2021/10/23 05:59:23;;;;;;;5.72;2.10;;;;;;;;;;5017110;28;20398;-80
2021/10/23 06:01:57;;;;;;;6.38;2.28;;;;;;;;;;5029868;28;20042;-80
2021/10/23 06:04:24;;;;;;;7.80;2.25;;;;;;;;;;5025468;28;20046;-80
2021/10/23 06:06:51;;;;;;;3.58;1.88;;;;;;;;;;5035705;28;20124;-79
2021/10/23 06:09:17;;;;;;;8.48;3.05;;;;;;;;;;5032608;28;20448;-80
2021/10/23 06:11:45;;;;;;;4.13;2.22;;;;;;;;;;5020068;28;20041;-80
2021/10/23 06:14:11;;;;;;;7.75;2.03;;;;;;;;;;5017308;28;20049;-80
2021/10/23 06:16:38;;;;;;;6.60;2.22;;;;;;;;;;5020008;28;20494;-80
2021/10/23 06:19:04;;;;;;;4.75;2.00;;;;;;;;;;5022451;28;20042;-80
2021/10/23 06:21:31;;;;;;;4.72;1.90;;;;;;;;;;5023778;28;20052;-80
2021/10/23 06:23:57;;;;;;;5.03;1.92;;;;;;;;;;5033984;28;20049;-80
2021/10/23 06:26:23;;;;;;;8.95;2.85;;;;;;;;;;5028988;28;20072;-80
2021/10/23 06:28:51;;;;;;;9.95;3.20;;;;;;;;;;5026068;28;20458;-80
2021/10/23 06:31:18;;;;;;;6.95;2.33;;;;;;;;;;5023223;28;20049;-80
2021/10/23 06:33:44;;;;;;;5.22;1.85;;;;;;;;;;5035268;28;20056;-80
2021/10/23 06:36:10;;;;;;;7.47;1.60;;;;;;;;;;5030916;28;20049;-80
2021/10/23 06:38:37;;;;;;;17.15;2.70;;;;;;;;;;5026541;28;20052;-80
2021/10/23 06:41:03;;;;;;;2.47;1.40;;;;;;;;;;5027511;28;20065;-80
2021/10/23 06:43:30;;;;;;;4.13;1.50;;;;;;;;;;5015268;28;20092;-80
2021/10/23 06:45:57;;;;;;;6.57;1.50;;;;;;;;;;5029483;28;20057;-80
2021/10/23 06:48:24;;;;;;;35.20;6.75;;;;;;;;;;5032601;28;20045;-80
2021/10/23 06:50:50;;;;;;;6.28;2.17;;;;;;;;;;5023642;28;20053;-80
2021/10/23 06:53:17;;;;;;;6.55;2.42;;;;;;;;;;5030577;28;20493;-80
2021/10/23 06:55:43;;;;;;;8.15;2.58;;;;;;;;;;5035044;28;20049;-80
2021/10/23 06:58:09;;;;;;;5.70;2.47;;;;;;;;;;5010544;28;20085;-79
2021/10/23 07:00:36;;;;;;;10.18;2.63;;;;;;;;;;5024833;28;20046;-80
2021/10/23 07:03:04;;;;;;;9.07;2.60;;;;;;;;;;5034978;28;20049;-80
2021/10/23 07:05:31;;;;;;;6.80;2.35;;;;;;;;;;5031451;28;20076;-80
2021/10/23 07:07:58;;;;;;;5.82;1.95;;;;;;;;;;5027821;28;20133;-79
2021/10/23 07:10:24;;;;;;;10.48;2.30;;;;;;;;;;5034440;28;20045;-79
2021/10/23 07:12:51;;;;;;;7.75;2.50;;;;;;;;;;5037084;28;20045;-79
2021/10/23 07:15:18;;;;;;;6.00;2.40;;;;;;;;;;5035179;28;20076;-81
2021/10/23 07:17:45;;;;;;;5.60;2.67;;;;;;;;;;5022671;28;20056;-80
2021/10/23 07:20:13;;;;;;;7.95;2.15;;;;;;;;;;5027271;28;20056;-80
2021/10/23 07:22:40;;;;;;;6.63;3.22;;;;;;;;;;5024825;28;20057;-81
2021/10/23 07:25:07;;;;;;;10.27;5.05;;;;;;;;;;5033379;28;20046;-80
2021/10/23 07:27:34;;;;;;;9.82;3.47;;;;;;;;;;5030363;28;20037;-81
2021/10/23 07:30:01;;;;;;;11.95;3.67;;;;;;;;;;5033552;28;20058;-80
2021/10/23 07:32:28;;;;;;;10.75;3.22;;;;;;;;;;5029577;28;20052;-80
2021/10/23 07:34:54;;;;;;;10.00;3.60;;;;;;;;;;5032271;28;20042;-80
2021/10/23 07:37:24;;;;;;;7.00;3.20;;;;;;;;;;5034161;28;20041;-80
2021/10/23 07:39:51;;;;;;;6.38;3.10;;;;;;;;;;5030797;28;20391;-81
2021/10/23 07:42:17;;;;;;;6.25;2.92;;;;;;;;;;5032312;28;20049;-81
2021/10/23 07:44:43;;;;;;;7.18;2.60;;;;;;;;;;5027075;28;20518;-80
2021/10/23 07:47:11;;;;;;;4.10;2.30;;;;;;;;;;5032421;28;20045;-81
2021/10/23 07:49:38;;;;;;;6.90;3.00;;;;;;;;;;5027464;28;20052;-80
2021/10/23 07:52:04;;;;;;;7.38;2.63;;;;;;;;;;5030220;28;20049;-81
2021/10/23 07:54:32;;;;;;;12.18;2.33;;;;;;;;;;5034650;28;20049;-80
2021/10/23 07:56:59;;;;;;;5.70;2.33;;;;;;;;;;5031816;28;20052;-81
2021/10/23 07:59:27;;;;;;;8.88;2.65;;;;;;;;;;5030427;28;20049;-81
2021/10/23 08:01:55;;;;;;;7.15;2.58;;;;;;;;;;5025586;28;20072;-81
2021/10/23 08:04:21;;;;;;;7.20;3.63;;;;;;;;;;5037610;28;20049;-81
2021/10/23 08:06:48;;;;;;;7.30;2.78;;;;;;;;;;5038810;28;20048;-81
2021/10/23 08:09:14;;;;;;;5.32;2.33;;;;;;;;;;5030911;28;20049;-81
2021/10/23 08:11:43;;;;;;;4.95;2.30;;;;;;;;;;5029335;28;20053;-81
2021/10/23 08:14:10;;;;;;;4.75;2.38;;;;;;;;;;5037050;28;20053;-81
2021/10/23 08:16:36;;;;;;;7.78;3.00;;;;;;;;;;5032588;28;20045;-81
2021/10/23 08:19:03;;;;;;;4.85;2.25;;;;;;;;;;5032168;28;20045;-80
2021/10/23 08:21:29;;;;;;;9.43;2.15;;;;;;;;;;5031716;28;20052;-80
2021/10/23 08:23:56;;;;;;;3.15;1.30;;;;;;;;;;5026744;28;20056;-80
2021/10/23 08:26:22;;;;;;;2.70;1.58;;;;;;;;;;5035192;28;20045;-80
2021/10/23 08:28:50;;;;;;;5.40;1.92;;;;;;;;;;5031544;28;20053;-80
2021/10/23 08:31:16;;;;;;;6.82;2.33;;;;;;;;;;5031615;28;20694;-81
2021/10/23 08:33:43;;;;;;;5.25;1.45;;;;;;;;;;5035496;28;20049;-81
2021/10/23 08:36:09;;;;;;;7.05;1.50;;;;;;;;;;5031520;28;20057;-81
2021/10/23 08:38:36;;;;;;;5.03;1.60;;;;;;;;;;5027813;28;20055;-80
2021/10/23 08:41:03;;;;;;;4.05;1.98;;;;;;;;;;5028037;28;20068;-80
2021/10/23 08:43:30;;;;;;;4.35;1.67;;;;;;;;;;5021865;28;20509;-80
2021/10/23 08:45:59;;;;;;;8.57;2.08;;;;;;;;;;5036344;28;20052;-80
2021/10/23 08:48:26;;;;;;;6.57;2.53;;;;;;;;;;5027415;28;20049;-81
2021/10/23 08:50:53;;;;;;;6.22;2.13;;;;;;;;;;5033250;28;20169;-81
2021/10/23 08:53:20;;;;;;;6.45;2.42;;;;;;;;;;5033698;28;20057;-80
2021/10/23 08:55:47;;;;;;;5.90;2.30;;;;;;;;;;5030726;28;20064;-80
2021/10/23 08:58:16;;;;;;;10.00;4.28;;;;;;;;;;5028850;28;20042;-80
2021/10/23 09:00:42;;;;;;;7.15;3.33;;;;;;;;;;5027729;28;20050;-80
2021/10/23 09:03:10;;;;;;;5.03;2.10;;;;;;;;;;5035034;28;20048;-80
2021/10/23 09:05:37;;;;;;;4.80;2.20;;;;;;;;;;5031840;28;20049;-80
2021/10/23 09:08:13;;;;;;;5.88;2.50;;;;;;;;;;5037847;28;20456;-81
2021/10/23 09:10:41;;;;;;;5.05;1.92;;;;;;;;;;5029108;28;20060;-81
2021/10/23 09:13:08;;;;;;;4.18;2.03;;;;;;;;;;5034977;28;20046;-80
2021/10/23 09:15:36;;;;;;;8.80;2.45;;;;;;;;;;5035230;28;20060;-82
2021/10/23 09:18:03;;;;;;;5.07;2.83;;;;;;;;;;5030935;28;20045;-80
2021/10/23 09:20:36;;;;;;;8.18;2.45;;;;;;;;;;5034007;28;20065;-81
2021/10/23 09:23:03;;;;;;;5.95;2.58;;;;;;;;;;5035322;28;20045;-83
2021/10/23 09:25:33;;;;;;;7.22;2.20;;;;;;;;;;5037062;28;20045;-82
2021/10/23 09:28:02;;;;;;;9.35;3.35;;;;;;;;;;5034619;28;20103;-82
2021/10/23 09:30:31;;;;;;;6.90;1.90;;;;;;;;;;5029552;28;20045;-81
2021/10/23 09:33:03;;;;;;;4.85;2.03;;;;;;;;;;5037891;28;20068;-81
2021/10/23 09:35:31;;;;;;;10.45;2.20;;;;;;;;;;5024468;28;20049;-83
2021/10/23 09:37:59;;;;;;;11.98;3.28;;;;;;;;;;5030518;28;20048;-81
2021/10/23 09:40:27;;;;;;;6.25;2.35;;;;;;;;;;5018047;28;20052;-81
2021/10/23 09:43:11;;;;;;;6.30;2.67;;;;;;;;;;5031662;28;20051;-80
2021/10/23 09:45:39;;;;;;;13.07;3.13;;;;;;;;;;5026464;28;20041;-81
2021/10/23 09:48:07;;;;;;;7.82;2.58;;;;;;;;;;5033813;28;20049;-78
2021/10/23 09:50:35;;;;;;;6.25;2.10;;;;;;;;;;5034486;28;20046;-80
2021/10/23 09:53:04;;;;;;;4.90;2.53;;;;;;;;;;5027949;28;20049;-78
2021/10/23 09:55:32;;;;;;;6.97;3.38;;;;;;;;;;5034132;28;20423;-79
2021/10/23 09:58:16;;;;;;;5.32;2.65;;;;;;;;;;5030184;28;20053;-80
2021/10/23 10:00:44;;;;;;;5.18;2.30;;;;;;;;;;5026018;28;20041;-80
2021/10/23 10:03:11;;;;;;;6.75;2.60;;;;;;;;;;5026534;28;20049;-80
2021/10/23 10:05:40;;;;;;;4.05;2.22;;;;;;;;;;5035028;28;20080;-80
2021/10/23 10:08:07;;;;;;;5.15;2.92;;;;;;;;;;5020175;28;20041;-80
2021/10/23 10:10:35;;;;;;;8.38;3.17;;;;;;;;;;5032350;28;20050;-80
2021/10/23 10:13:02;;;;;;;6.93;2.47;;;;;;;;;;5036818;28;20069;-80
2021/10/23 10:15:30;;;;;;;9.85;3.00;;;;;;;;;;5036081;28;20052;-80
2021/10/23 10:17:59;;;;;;;4.70;2.58;;;;;;;;;;5032964;28;20059;-80
2021/10/23 10:20:26;;;;;;;4.90;2.70;;;;;;;;;;5030857;28;20456;-80
2021/10/23 10:22:54;;;;;;;4.22;2.50;;;;;;;;;;5023809;28;20050;-80
2021/10/23 10:25:21;;;;;;;6.05;2.70;;;;;;;;;;5022882;28;20511;-80
2021/10/23 10:27:48;;;;;;;7.32;2.72;;;;;;;;;;5025325;28;20052;-80
2021/10/23 10:30:23;;;;;;;4.28;2.78;;;;;;;;;;5036147;28;20049;-81
2021/10/23 10:32:49;;;;;;;4.32;2.60;;;;;;;;;;5039612;28;20203;-80
2021/10/23 10:35:31;;;;;;;4.75;2.67;;;;;;;;;;5031464;28;20689;-80
2021/10/23 10:42:40;;;;;;;3.65;2.47;;;;;;;;;;5035123;28;20042;-80
2021/10/23 10:44:08;;;;;;;4.95;2.40;;;;;;;;;;5034998;28;20124;-80
2021/10/23 10:47:11;;;;;;;5.40;2.42;;;;;;;;;;5031590;28;20038;-80
2021/10/23 10:49:53;;;;;;;4.85;2.40;;;;;;;;;;5025297;28;20045;-80
2021/10/23 10:52:55;;;;;;;4.18;2.60;;;;;;;;;;5027545;28;20054;-80
2021/10/23 10:55:23;;;;;;;4.88;2.65;;;;;;;;;;4963713;28;20054;-80
2021/10/23 10:58:05;;;;;;;3.95;2.10;;;;;;;;;;4973442;28;20050;-80
2021/10/23 11:01:12;;;;;;;3.40;2.25;;;;;;;;;;5010027;28;20079;-80
2021/10/23 11:03:44;;;;;;;8.30;3.10;;;;;;;;;;5022355;28;20046;-80
2021/10/23 11:06:45;;;;;;;6.95;2.45;;;;;;;;;;5025295;28;20490;-80
2021/10/23 11:09:43;;;;;;;6.15;2.40;;;;;;;;;;5027141;28;20049;-80
2021/10/23 11:12:37;;;;;;;4.60;2.30;;;;;;;;;;4983866;28;20058;-80
2021/10/23 11:15:04;;;;;;;4.00;1.85;;;;;;;;;;5017988;28;20053;-80
2021/10/23 11:17:31;;;;;;;5.85;2.65;;;;;;;;;;5038864;28;20141;-80
2021/10/23 11:20:01;;;;;;;3.03;1.80;;;;;;;;;;5028469;28;20049;-82
2021/10/23 11:22:31;;;;;;;3.50;1.90;;;;;;;;;;5014362;28;20060;-81
2021/10/23 11:25:03;;;;;;;3.35;1.80;;;;;;;;;;5032468;28;20141;-81
2021/10/23 11:27:42;;;;;;;2.28;1.30;;;;;;;;;;5030452;28;20124;-82
2021/10/23 11:30:20;;;;;;;2.60;1.67;;;;;;;;;;5030443;28;20052;-81
2021/10/23 11:32:53;;;;;;;2.38;1.55;;;;;;;;;;5025641;28;20058;-80
2021/10/23 11:35:30;;;;;;;3.67;1.67;;;;;;;;;;5022700;28;20066;-81
2021/10/23 11:37:57;;;;;;;4.20;1.77;;;;;;;;;;5022110;28;20072;-80
2021/10/23 11:40:23;;;;;;;3.08;1.60;;;;;;;;;;5033113;28;20068;-81
2021/10/23 11:42:52;;;;;;;2.88;1.60;;;;;;;;;;5032287;28;20052;-81
2021/10/23 11:45:21;;;;;;;4.07;1.90;;;;;;;;;;5034119;28;20045;-80
2021/10/23 11:47:48;;;;;;;4.43;2.13;;;;;;;;;;5028872;28;20041;-81
2021/10/23 11:50:21;;;;;;;4.07;1.80;;;;;;;;;;5027055;28;20042;-81
2021/10/23 11:52:52;;;;;;;4.05;1.95;;;;;;;;;;5024020;28;20049;-81
2021/10/23 11:55:30;;;;;;;2.67;1.65;;;;;;;;;;5019545;28;20057;-80
2021/10/23 11:57:59;;;;;;;2.08;1.17;;;;;;;;;;5034221;28;20057;-80
2021/10/23 12:00:27;;;;;;;2.90;1.30;;;;;;;;;;5027181;28;20049;-80
2021/10/23 12:02:59;;;;;;;2.35;1.50;;;;;;;;;;5028787;28;20077;-80
2021/10/23 12:05:27;;;;;;;4.18;1.60;;;;;;;;;;5021370;28;20065;-80
2021/10/23 12:08:13;;;;;;;3.63;1.83;;;;;;;;;;5030857;28;20048;-80
2021/10/23 12:11:02;;;;;;;3.70;1.75;;;;;;;;;;5024062;28;20069;-80
2021/10/23 12:13:31;;;;;;;2.72;1.42;;;;;;;;;;5029575;28;20377;-79
2021/10/23 12:16:03;;;;;;;2.53;1.70;;;;;;;;;;5027089;28;20053;-80
2021/10/23 12:18:31;;;;;;;3.85;1.40;;;;;;;;;;5023639;28;20041;-80
2021/10/23 12:21:10;;;;;;;3.22;1.70;;;;;;;;;;5031188;28;20045;-80
2021/10/23 12:23:44;;;;;;;3.75;1.77;;;;;;;;;;5025507;28;20456;-80
2021/10/23 12:26:10;;;;;;;5.93;1.77;;;;;;;;;;5027711;28;20751;-80
2021/10/23 12:28:57;;;;;;;7.07;1.55;;;;;;;;;;5020873;28;20046;-80
2021/10/23 12:31:24;;;;;;;3.72;1.63;;;;;;;;;;5028777;28;20045;-80
2021/10/23 12:34:04;;;;;;;3.75;1.60;;;;;;;;;;5024226;28;20072;-79
2021/10/23 12:36:31;;;;;;;2.55;1.50;;;;;;;;;;5007603;28;20049;-80
2021/10/23 12:39:19;;;;;;;5.72;2.50;;;;;;;;;;5029241;28;20056;-80
2021/10/23 12:41:45;;;;;;;2.60;1.63;;;;;;;;;;5028902;28;20563;-81
2021/10/23 12:44:16;;;;;;;2.55;1.50;;;;;;;;;;5030898;28;20046;-80
2021/10/23 12:46:42;;;;;;;4.10;1.55;;;;;;;;;;5020202;28;20812;-80
2021/10/23 12:49:08;;;;;;;3.35;1.60;;;;;;;;;;5029413;28;20260;-80
2021/10/23 12:51:35;;;;;;;3.70;1.30;;;;;;;;;;5030891;28;20052;-81
2021/10/23 12:54:01;;;;;;;2.28;1.67;;;;;;;;;;5033856;28;20564;-80
2021/10/23 12:56:28;;;;;;;3.03;1.20;;;;;;;;;;5017585;28;20050;-80
2021/10/23 12:58:54;;;;;;;4.07;1.13;;;;;;;;;;5022442;28;20060;-80
2021/10/23 13:01:23;;;;;;;2.13;1.00;;;;;;;;;;5019385;28;20054;-80
2021/10/23 13:03:49;;;;;;;2.85;1.17;;;;;;;;;;5033851;28;20045;-80
2021/10/23 13:06:16;;;;;;;4.07;1.17;;;;;;;;;;5017474;28;20046;-80
2021/10/23 13:08:43;;;;;;;1.55;0.95;;;;;;;;;;5034232;28;20115;-80
2021/10/23 13:11:09;;;;;;;1.38;0.85;;;;;;;;;;5020260;28;20068;-80
2021/10/23 13:13:36;;;;;;;2.67;1.42;;;;;;;;;;5021888;28;20045;-81
2021/10/23 13:16:02;;;;;;;4.18;1.40;;;;;;;;;;5033679;28;20073;-80
2021/10/23 13:18:34;;;;;;;3.47;1.77;;;;;;;;;;5033994;28;20049;-80
2021/10/23 13:21:01;;;;;;;4.07;2.00;;;;;;;;;;5019210;28;20080;-81
2021/10/23 13:23:27;;;;;;;4.50;2.00;;;;;;;;;;5030863;28;20482;-80
2021/10/23 13:25:53;;;;;;;5.40;2.70;;;;;;;;;;5037893;28;20050;-80
2021/10/23 13:28:20;;;;;;;5.63;2.33;;;;;;;;;;5038951;28;20049;-80
2021/10/23 13:30:46;;;;;;;3.95;2.50;;;;;;;;;;5033066;28;20042;-80
2021/10/23 13:33:13;;;;;;;7.47;2.50;;;;;;;;;;5034141;28;20038;-80
2021/10/23 13:35:41;;;;;;;4.72;2.30;;;;;;;;;;5028327;28;20060;-80
2021/10/23 13:38:07;;;;;;;4.82;2.15;;;;;;;;;;5023216;28;20085;-80
2021/10/23 13:40:34;;;;;;;6.57;2.38;;;;;;;;;;5034841;28;20441;-80
2021/10/23 13:43:00;;;;;;;4.63;2.75;;;;;;;;;;5034806;28;20049;-80
2021/10/23 13:45:27;;;;;;;4.45;2.50;;;;;;;;;;5021231;28;20073;-80
2021/10/23 13:47:53;;;;;;;6.47;3.00;;;;;;;;;;5032926;28;20048;-80
2021/10/23 13:50:20;;;;;;;5.72;2.88;;;;;;;;;;5024564;28;20053;-80
2021/10/23 13:52:47;;;;;;;5.05;2.60;;;;;;;;;;5027904;28;20050;-81
2021/10/23 13:55:14;;;;;;;6.90;2.75;;;;;;;;;;5035304;28;20068;-80
2021/10/23 13:57:40;;;;;;;3.97;2.25;;;;;;;;;;5036719;28;20397;-80
2021/10/23 14:00:08;;;;;;;6.18;2.33;;;;;;;;;;5028764;28;20057;-80
2021/10/23 14:02:35;;;;;;;4.80;2.80;;;;;;;;;;5029731;28;20577;-81
2021/10/23 14:05:02;;;;;;;5.88;3.13;;;;;;;;;;5031158;28;20057;-81
2021/10/23 14:07:28;;;;;;;4.72;2.50;;;;;;;;;;5034556;28;20041;-81
2021/10/23 14:09:56;;;;;;;6.05;2.33;;;;;;;;;;5025303;28;20858;-80
2021/10/23 14:12:23;;;;;;;11.05;5.20;;;;;;;;;;5030948;28;20044;-81
2021/10/23 14:14:49;;;;;;;4.22;2.40;;;;;;;;;;5034556;28;20401;-81
2021/10/23 14:17:16;;;;;;;7.60;3.03;;;;;;;;;;5033192;28;20053;-80
2021/10/23 14:19:42;;;;;;;5.72;2.85;;;;;;;;;;5027834;28;20041;-81
2021/10/23 14:22:12;;;;;;;5.40;3.10;;;;;;;;;;5033464;28;20049;-80
2021/10/23 14:24:38;;;;;;;5.50;3.20;;;;;;;;;;5030715;28;20043;-79
2021/10/23 14:27:12;;;;;;;6.00;3.05;;;;;;;;;;5031910;28;20045;-81
2021/10/23 14:29:39;;;;;;;6.22;3.75;;;;;;;;;;5029655;28;20560;-80
2021/10/23 14:32:06;;;;;;;4.72;2.40;;;;;;;;;;5026140;28;20060;-81
2021/10/23 14:34:32;;;;;;;6.72;3.33;;;;;;;;;;5032043;28;20046;-81
2021/10/23 14:37:00;;;;;;;14.60;5.22;;;;;;;;;;5034618;28;20421;-81
2021/10/23 14:39:26;;;;;;;12.90;6.45;;;;;;;;;;5040760;28;20036;-81
2021/10/23 14:41:53;;;;;;;5.30;2.75;;;;;;;;;;5033902;28;20048;-81
2021/10/23 14:44:21;;;;;;;7.72;3.75;;;;;;;;;;5037601;28;20041;-81
2021/10/23 14:46:47;;;;;;;10.98;6.47;;;;;;;;;;5036059;28;20049;-80
2021/10/23 14:49:13;;;;;;;7.15;3.58;;;;;;;;;;5034175;28;20045;-81
2021/10/23 14:51:40;;;;;;;7.18;3.08;;;;;;;;;;5035077;28;20064;-81
2021/10/23 14:54:06;;;;;;;8.07;4.38;;;;;;;;;;5030437;28;20045;-81
2021/10/23 14:56:33;;;;;;;8.75;3.63;;;;;;;;;;5033264;28;20056;-81